Latest Observation

65 Stations

10 Minute Data
as of 5/4/26 5:01 AM PDT
Station Date Time Temp (°F) RH (%) Dew Pt (°F) Wind Spd (mph) Wind Dir (°) Wind Gust (mph) Wind Gst Dir (°) Latest Rain (In) Soil Moist (%) Soil Temp (°F) Daily Rain (In) Daily Min Temp (°F) Daily Max Temp (°F) Daily Max Wind (mph)
Hobart Mills 5/4/26 0500 36.0   4.2 100   0 36.0   4.3 1.0   0.3 WNW | 282 2.4   1.5 W | 276 0.00 - 32.0   0.0 0.00 35.7   4.0 36.9   4.3 2.4   1.5
Prosser Dam 5/4/26 0500 38.5   1.9 98   0 37.9   1.9 4.1   2.3 NW | 310 7.6   3.1 NW | 312 0.00 20.8   0.3 48.6   0.1 0.00 37.9   2.2 39.6   3.1 7.6   1.4
West Incline Village 5/4/26 0500 39.5   6.4 78   21 33.2   1.8 2.8   1.3 NE | 44 6.0   2.7 ENE | 60 0.00 30.8   0.1 44.5   0.1 0.00 36.2   8.6 40.3   8.2 8.2   1.7
Incline Village (Fairview Blvd) 5/4/26 0500 39.8   8.9 80   27 34.1   1.9 0.0   0.8 N | 0 0.0   5.8 NE | 37 0.00 25.8   1.6 51.9   0.3 0.00 39.0   5.4 41.2   8.9 3.1   3.7
Incline Village (Diamond Peak) 5/4/26 0500 39.2   9.7 76   30 32.3   3.2 1.8   2.5 S | 189 5.0   3.6 S | 181 0.00 8.4   0.1 44.7   0.8 0.00 37.7   10.1 39.4   9.7 5.0   9.9
Incline Village (Mill Creek) 5/4/26 0500 39.4   13.0 85   42 35.4   4.4 0.7   2.6 E | 90 2.4   6.8 ESE | 106 0.00 9.7   0.1 46.4   0.3 0.00 39.2   6.3 41.1   11.7 5.0   8.6
Incline Village (Lakeshore Blvd) 5/4/26 0500 39.2   15.4 95   53 38.0   5.6 0.5   3.7 NNE | 26 1.7   8.9 N | 8 0.00 34.5   1.0 50.3   1.1 0.00 39.0   9.9 41.7   13.3 3.2   14.4
Glenbrook 5/4/26 0500 40.0   4.8 93   17 38.1   0.4 0.3   0.6 ESE | 114 1.9   1.4 SE | 126 0.00 44.3   0.0 45.3   0.2 0.00 39.7   4.8 40.8   10.0 3.8   3.6
Zephyr Cove 5/4/26 0500 41.5   3.5 87   9 37.9   0.8 0.0   0.0 N | 0 0.0   0.0 E | 87 0.00 - 34.3   0.0 0.00 41.1   3.9 41.8   8.4 1.5   0.4
Kingsbury Grade 5/4/26 0500 39.6   8.2 92   31 37.4   2.3 0.0   4.3 N | 0 0.0   10.3 NNE | 29 0.00 5.9   0.2 52.2   2.9 0.00 38.5   7.9 39.8   9.1 2.7   10.4
South Daggett Pass (Ridge) 5/4/26 0500 37.5   8.1 94   31 36.0   2.1 3.6   2.1 W | 281 9.8   4.7 W | 264 0.00 6.5   0.1 48.4   0.5 0.01 36.4   8.1 37.7   8.6 14.0   0.5
Palomino Valley 5/4/26 0500 49.4   8.1 67   19 39.0   0.6 0.0   8.6 SE | 126 0.6   12.0 ESE | 123 0.00 6.7   0.0 63.3   0.0 0.00 47.8   2.0 51.5   6.7 5.0   7.7
East Cold Springs 5/4/26 0500 44.0   5.5 79   12 37.9   1.1 12.5   8.1 WSW | 253 16.6   10.4 WSW | 247 0.00 1.5   0.0 55.2   0.3 0.00 43.8   4.2 48.0   5.0 20.1   8.3
Peavine 5/4/26 0500 47.7   1.5 59   0 34.2   1.3 0.3   3.3 SW | 217 3.2   2.9 WSW | 244 0.00 - 53.4   0.0 0.00 41.4   4.6 49.3   1.6 11.2   0.5
West Verdi Peak 5/4/26 0500 41.6   6.7 78   15 35.2   0.9 3.2   2.8 NNW | 328 7.1   5.0 N | 349 0.00 16.2   0.3 50.4   0.4 0.00 39.9   3.7 46.6   3.6 11.8   4.3
West Verdi 5/4/26 0500 47.1   2.3 69   3 37.5   3.4 4.5   1.3 S | 188 8.9   1.5 S | 190 0.00 7.7   0.1 59.3   1.1 0.00 45.0   2.1 48.6   3.1 9.4   2.7
South Verdi 5/4/26 0500 45.2   6.3 74   12 37.5   1.5 12.9   10.5 WSW | 248 18.1   14.0 WSW | 248 0.00 16.1   0.4 54.5   2.5 0.00 44.8   2.5 49.0   5.1 29.1   3.2
Northwest Reno 5/4/26 0500 50.6   3.3 57   4 35.9   1.2 11.7   9.3 W | 259 18.5   14.3 W | 269 0.00 23.8   0.3 61.1   1.0 0.00 47.8   2.8 52.3   4.6 24.3   8.2
North Lawton 5/4/26 0500 47.7   3.5 66   5 36.8   1.2 11.0   10.1 SSW | 210 15.3   12.2 SSW | 212 0.00 - 39.1   0.0 0.00 47.6   0.9 49.5   4.6 20.1   6.0
West Reno (Mogul) 5/4/26 0500 49.9   4.1 59   4 36.1   2.1 9.3   7.0 WSW | 249 16.4   6.3 W | 266 0.00 38.6   0.3 61.1   0.2 0.00 46.9   1.8 53.2   1.7 17.3   6.1
Caughlin (Hunter Lake Trail) 9/16/25 0800 59.7   3.5 41   11 35.9   2.7 0.0   0.0 N | 0 0.0   0.0 ENE | 66 0.00 15.7   0.0 69.8   0.5 0.00 55.7   3.2 67.7   9.1 9.4   0.9
ArrowCreek 5/4/26 0500 46.1   3.5 69   0 36.3   3.2 3.4   0.4 S | 184 8.7   2.7 SSW | 197 0.00 - 32.0   0.0 0.00 45.6   3.4 50.3   4.6 10.2   0.4
Tracy 5/4/26 0500 53.2   0.3 57   13 38.4   5.8 10.6   7.8 WSW | 255 13.8   8.3 W | 260 0.00 8.0   0.1 63.6   0.1 0.00 52.9   0.6 54.5   3.1 18.5   4.2
Virginia Highlands 5/4/26 0500 44.9   5.5 66   7 34.4   2.4 1.2   2.2 WNW | 302 7.1   0.6 WNW | 285 0.00 7.2   0.0 56.9   0.3 0.00 43.9   4.6 47.1   4.9 7.9   0.7
Virginia City 5/4/26 0500 47.8   3.5 52   4 31.2   1.5 8.6   5.3 NNW | 344 18.1   12.5 NNE | 24 0.00 8.4   0.1 54.9   0.0 0.00 44.6   6.5 48.4   5.1 26.1   12.4
Six Mile Canyon 9/9/25 0630 60.2   9.6 37   6 33.7   4.8 4.1   2.5 W | 277 6.1   2.9 WNW | 286 0.00 12.5   0.0 75.5   0.7 0.00 57.9   7.6 64.4   1.9 7.0   3.9
Mt Rose Highway 4/30/26 0510 40.8   4.7 47   13 22.3   1.3 2.3   0.2 WSW | 243 4.8   2.1 WSW | 246 0.00 24.1   0.3 43.0   0.8 0.00 40.5   4.7 43.0   5.3 7.7   0.4
Pleasant Valley 5/4/26 0500 47.0   0.2 70   12 37.8   3.8 2.2   1.0 NNW | 345 5.0   2.1 WNW | 300 0.00 2.8   0.1 62.0   1.1 0.00 44.9   1.0 49.0   3.7 7.5   0.2
New Washoe City 5/4/26 0500 46.3   3.0 72   1 37.7   3.4 0.6   0.6 NW | 308 4.5   4.5 NW | 304 0.00 4.5   0.0 58.6   0.6 0.00 44.5   2.5 48.6   4.2 10.2   0.5
Franktown Creek 5/4/26 0500 44.6   1.7 77   6 38.0   3.6 0.0   0.7 N | 0 0.0   2.5 W | 275 0.00 11.2   0.1 56.0   0.7 0.00 43.6   2.2 46.5   3.2 4.5   0.0
Musgrove Creek 5/4/26 0500 45.0   4.0 69   3 35.6   2.6 1.5   0.7 WSW | 256 2.4   0.0 SSW | 206 0.00 43.7   4.1 53.1   0.3 0.00 44.5   3.2 49.6   2.6 11.3   7.7
East Carson 11/23/24 0110 28.6   28.4 - - 4.7   11.0 SW | 220 14.7   10.1 SW | 219 0.02 - 50.9   0.1 0.02 -25.9   79.1 42.9   14.6 16.0   10.7
Kings Canyon 5/4/26 0500 42.1   6.6 77   7 35.4   3.9 2.7   1.3 S | 174 3.7   2.2 SSE | 162 0.00 15.2   0.3 56.0   2.0 0.00 41.8   4.4 48.1   4.2 6.0   2.0
Carson City (Voltaire Canyon) 5/4/26 0500 49.1   4.4 64   2 37.6   3.4 7.2   1.1 NNW | 337 9.8   2.5 NNW | 340 0.00 2.8   0.0 62.2   0.5 0.00 48.4   1.9 50.9   5.7 24.1   8.7
Jacks Valley 5/4/26 0500 46.1   2.0 66   13 35.2   6.5 1.5   0.2 NNW | 337 3.0   0.2 NW | 317 0.00 9.5   0.2 59.4   3.3 0.00 45.5   1.5 50.0   2.0 17.0   9.3
Genoa 5/4/26 0500 47.2   1.7 71   9 38.4   4.8 0.0   0.0 N | 0 0.0   0.0 SSW | 204 0.00 5.5   0.1 53.1   4.0 0.00 46.5   2.0 53.0   0.3 13.0   10.7
South Genoa (Walleys Hot Springs) 5/4/26 0500 48.0   0.3 71   17 39.1   5.8 1.5   1.5 SE | 140 4.7   4.7 SE | 131 0.00 13.7   0.0 62.9   1.6 0.00 46.2   1.9 50.8   3.4 8.2   3.0
SW Gardnerville (HWY 88) 5/4/26 0500 45.3   2.0 85   2 41.0   2.6 1.8   1.4 S | 177 2.9   1.6 S | 182 0.00 3.4   0.0 56.4   2.2 0.00 43.8   2.5 48.8   4.6 8.8   0.8
Sheridan 5/4/26 0500 47.4   1.5 71   0 38.4   1.6 2.3   1.2 SW | 221 2.9   0.4 SW | 214 0.00 2.3   0.1 58.3   1.9 0.00 45.3   2.6 50.0   4.8 10.2   3.1
Ruhenstroth 5/4/26 0500 46.1   2.6 69   3 36.7   3.5 1.7   0.9 WNW | 282 3.8   1.6 W | 270 0.00 12.8   0.2 56.4   2.7 0.00 45.9   2.4 51.2   1.4 16.5   8.2
Double Spring 5/4/26 0500 39.5   3.0 85   4 35.3   4.3 3.4   0.3 NNW | 346 5.2   0.5 N | 3 0.00 28.4   0.2 53.9   3.3 0.00 39.0   3.4 44.1   2.8 6.7   1.0
North Topaz Lake 5/4/26 0500 49.3   1.5 53   9 33.0   5.5 4.0   4.0 WNW | 292 12.3   12.3 WNW | 287 0.00 8.9   0.0 53.1   3.7 0.00 45.9   4.6 51.2   3.3 12.8   7.7
Wild Oat Mountain 5/4/26 0500 46.4   5.0 57   1 31.9   4.3 5.2   4.7 WNW | 303 10.1   6.3 NW | 320 0.00 16.6   0.1 57.4   2.3 0.00 45.5   3.5 48.0   3.8 10.1   5.0
Smith Valley 5/4/26 0500 46.6   2.1 65   0 35.6   1.8 3.2   0.9 NW | 316 4.7   0.2 NNW | 328 0.00 5.9   0.2 60.0   2.3 0.00 45.2   3.0 53.1   5.0 10.4   2.4
Pine Grove Mountain 5/4/26 0500 39.1   4.2 61   3 26.8   2.8 5.0   0.6 NW | 310 6.5   2.2 NW | 312 0.00 14.5   0.0 47.2   3.2 0.00 39.0   3.8 40.7   5.7 9.9   0.9
Paradise Hill 5/4/26 0500 50.7   2.0 48   8 31.6   3.0 2.2   0.9 NW | 304 3.6   0.7 NW | 304 0.00 8.0   0.1 59.4   0.9 0.00 46.7   4.2 60.6   0.3 13.0   5.1
Winnemucca 5/4/26 0500 47.3   9.6 56   20 32.6   2.4 5.4   0.4 S | 173 6.5   0.5 S | 171 0.00 5.9   0.0 58.0   0.3 0.00 47.1   6.2 55.7   3.6 8.7   0.6
NE Elko 5/4/26 0500 36.0   8.8 46   14 17.4   0.1 1.7   0.5 ENE | 64 4.3   1.0 NE | 51 0.00 12.5   0.0 56.4   0.8 0.00 33.5   10.6 43.9   4.9 6.6   0.9
North Elko 5/4/26 0500 49.5   2.3 42   17 27.6   10.2 2.4   0.9 WSW | 251 3.0   2.7 WSW | 257 0.00 28.5   0.0 56.2   0.6 0.00 45.5   5.5 56.7   2.2 11.0   4.1
South Elko 5/4/26 0500 53.5   1.9 44   17 31.9   13.6 3.3   2.8 SW | 223 4.5   2.2 SW | 224 0.00 18.7   0.1 54.9   0.3 0.00 49.9   0.0 92.7 8.3   1.6
Lamoille 1/28/26 1720 33.2   0.5 65   17 22.8   6.3 5.8   1.5 SSE | 166 7.7   1.9 SE | 139 0.00 12.2   0.0 33.4   0.1 0.02 23.5   2.0 36.5   5.9 25.6   17.4
Reid Gardner Sub 5/4/26 0500 67.2   12.7 30   14 34.9   25.0 3.9   1.3 S | 179 6.8   1.2 S | 184 0.00 24.6   0.1 73.4   0.7 0.00 64.9   12.7 72.6   13.5 11.7   4.5
Corn Creek 5/4/26 0500 61.0   3.2 40   25 36.5   20.7 9.9   6.5 ENE | 76 13.9   7.2 ENE | 78 0.00 4.0   0.0 74.4   0.8 0.00 60.8   1.6 69.4   0.3 18.0   11.3
Lucky Strike 5/4/26 0500 52.3   7.7 31   15 22.3   8.8 2.1   4.3 NNW | 331 4.6   3.7 NW | 313 0.00 4.4   0.0 66.0   0.3 0.00 51.7   6.4 60.2   2.7 28.0   14.0
Lower Angel Peak 5/4/26 0500 52.0   2.3 14   10 4.9   9.6 5.2   0.6 SSW | 200 10.7   3.4 SE | 139 0.00 10.2   0.3 55.7   0.7 0.00 51.4   3.7 54.4   1.9 18.3   7.0
Angel Peak 5/4/26 0500 40.3   5.0 16   8 -1.7   13.2 15.0   1.5 S | 176 23.4   0.2 SSE | 164 0.00 3.5   0.1 48.2   1.1 0.00 39.7   5.1 42.6   4.5 34.5   8.3
Upper Kyle Canyon 5/4/26 0500 39.4   5.8 26   2 7.7   6.3 4.2   1.0 NW | 324 6.0   2.0 NNW | 330 0.00 13.8   0.1 53.1   1.2 0.00 38.0   4.1 47.8   1.4 19.4   11.2
Mt Charleston 5/4/26 0500 40.1   6.3 31   3 11.7   3.0 1.7   1.8 W | 260 4.3   2.1 WNW | 302 0.00 18.4   0.1 48.5   1.2 0.00 39.6   4.6 48.8   0.9 13.8   5.2
Mid Kyle Canyon 5/4/26 0500 45.6   3.5 25   1 11.6   4.4 10.4   0.9 W | 274 14.7   1.1 W | 280 0.00 7.1   0.1 57.7   0.4 0.00 43.7   3.6 54.6   3.3 15.3   2.1
Blue Diamond 5/4/26 0500 59.9   12.4 38   11 34.4   18.8 3.7   0.3 E | 97 8.7   1.7 E | 94 0.00 3.5   0.0 69.6   0.3 0.00 59.0   12.4 67.3   15.1 15.0   6.8
Artesian Sub 5/4/26 0500 68.2   4.4 34   13 39.2   15.3 4.8   4.8 SSE | 148 10.2   8.3 SE | 146 0.00 13.4   0.0 73.6   0.1 0.00 68.1   5.2 77.2   5.9 19.5   15.9
North Henderson 5/4/26 0500 70.3   5.8 32   12 38.7   16.2 10.8   10.8 SSW | 200 16.8   16.8 SSW | 213 0.00 8.8   0.3 79.6   0.4 0.00 70.2   6.0 76.8   4.2 23.5   18.8
Sandy Valley 5/4/26 0500 56.1   0.6 58   39 41.6   27.4 4.9   4.8 NNW | 336 6.8   6.0 NNW | 347 0.00 4.5   0.1 78.2   1.1 0.00 55.9   1.5 64.2   9.2 11.4   0.0
Searchlight 5/4/26 0500 55.9   4.3 50   32 37.8   20.8 4.4   1.1 NNW | 332 6.1   1.0 NW | 321 0.00 4.7   0.0 74.9   0.8 0.00 55.6   3.2 64.7   0.5 14.4   7.3
Laughlin 5/4/26 0500 73.7   3.1 39   25 47.5   23.2 4.9   1.8 SW | 219 8.7   5.0 SW | 227 0.00 4.2   0.0 85.4   0.7 0.00 73.5   0.3 82.7   2.5 25.8   19.2
Max     73.7 100 47.5 15.0 - 23.4 - 0.00 44.3 85.4 0.01 73.5 92.7 34.5
Avg     47.3 62 33.1 4.1 - 7.2 - 0.00 13.1 56.5 - - - -
Min     36.0 14 -1.7 0.0 - 0.0 - 0.00 1.5 32.0 0.00 33.5 36.9 1.5